Michigan — WDF5344 — position and weather

sailwx.info

Track history (hours):
 
Tides and Currents Weather Stations Pressure Air Temp Water Temp Dewpoint Dewpoint Depression Visibility Wind Speed Wind Dir Waves Ship Positions

Michigan

Owner: GATX Third Aircraft Corporation, San Francisco, CA. More information available from US FCC via Universal Licensing System and Coast Guard Vessel Documentation Center.

Last reported at 2018-Apr-23 03:36 UTC. Time now 2018-Apr-24 05:06 UTC.
Position N 46°01' W 073°10'.

Length 135 m; draft 5.2 m.

Type: Tanker. MMSI: 303583000.

Date/timePositionNaut miles runAvg speedWind from/ knotsBaromVisibWave heightAir tempDewpointWater temp
2018-Apr-23 03:36N 46°01' W 073°10'1 5.8
2018-Apr-23 03:30N 46°01' W 073°10'3 5.3
2018-Apr-23 03:00N 46°03' W 073°08'3 5.9
2018-Apr-23 02:30N 46°04' W 073°04'90 6.3
2018-Apr-22 12:18N 46°49' W 071°12'1 0.4
2018-Apr-22 10:56N 46°50' W 071°12'0 0.0
2018-Apr-22 10:29N 46°50' W 071°12'0 0.0
2018-Apr-22 09:59N 46°50' W 071°12'0 0.0
2018-Apr-22 09:26N 46°50' W 071°12'0 0.0
2018-Apr-22 07:47N 46°50' W 071°12'0 0.0
2018-Apr-22 07:29N 46°50' W 071°12'0 0.0
2018-Apr-22 06:02N 46°50' W 071°12'0 0.0
2018-Apr-22 05:35N 46°50' W 071°12'0 0.0
2018-Apr-22 05:05N 46°50' W 071°12'0 0.0
2018-Apr-22 04:38N 46°50' W 071°12'0 0.0
2018-Apr-22 04:23N 46°50' W 071°12'0 0.0
2018-Apr-22 02:56N 46°50' W 071°12'0 0.0
2018-Apr-22 01:20N 46°50' W 071°12'0 0.0
2018-Apr-22 00:59N 46°50' W 071°12'0 0.0
2018-Apr-21 23:20N 46°50' W 071°12'0 0.0
2018-Apr-21 22:50N 46°50' W 071°12'0 0.0
2018-Apr-21 22:23N 46°50' W 071°12'0 0.0
2018-Apr-21 18:11N 46°50' W 071°12'0 0.0
2018-Apr-21 17:54N 46°50' W 071°12'0 1.2
2018-Apr-21 17:31N 46°49' W 071°12'9010.9
2018-Apr-21 09:16N 46°04' W 073°04'312.0
2018-Apr-21 09:00N 46°03' W 073°08'37 1.5
2018-Apr-20 08:25N 45°30' W 073°31'2 5.0
2018-Apr-20 07:59N 45°27' W 073°30'3 6.7
2018-Apr-20 07:31N 45°25' W 073°32'1 2.9
2018-Apr-20 07:00N 45°24' W 073°34'1 2.0
2018-Apr-20 06:30N 45°24' W 073°35'1 2.8
2018-Apr-20 06:01N 45°24' W 073°37'2 3.5
2018-Apr-20 05:30N 45°25' W 073°40'3 5.6
2018-Apr-20 05:00N 45°24' W 073°44'5 9.8
2018-Apr-20 04:30N 45°22' W 073°50'5 9.6
2018-Apr-20 04:00N 45°19' W 073°55'0 0.2
2018-Apr-20 03:30N 45°19' W 073°55'1 1.6
2018-Apr-20 02:59N 45°18' W 073°56'0 0.6
2018-Apr-20 02:30N 45°18' W 073°56'5 9.1
2018-Apr-20 01:59N 45°14' W 073°60'611.1
2018-Apr-20 01:27N 45°14' W 074°08'  
Track history (hours):
 
Tides and Currents Weather Stations Pressure Air Temp Water Temp Dewpoint Dewpoint Depression Visibility Wind Speed Wind Dir Waves Ship Positions

Michigan

Owner: GATX Third Aircraft Corporation, San Francisco, CA. More information available from US FCC via Universal Licensing System and Coast Guard Vessel Documentation Center.

Last reported at 2018-Apr-23 03:36 UTC. Time now 2018-Apr-24 05:06 UTC.
Position N 46°01' W 073°10'.

Length 135 m; draft 5.2 m.

Type: Tanker. MMSI: 303583000.

Date/timePositionNaut miles runAvg speedWind from/ knotsBaromVisibWave heightAir tempDewpointWater temp
2018-Apr-23 03:36N 46°01' W 073°10'1 5.8
2018-Apr-23 03:30N 46°01' W 073°10'3 5.3
2018-Apr-23 03:00N 46°03' W 073°08'3 5.9
2018-Apr-23 02:30N 46°04' W 073°04'90 6.3
2018-Apr-22 12:18N 46°49' W 071°12'1 0.4
2018-Apr-22 10:56N 46°50' W 071°12'0 0.0
2018-Apr-22 10:29N 46°50' W 071°12'0 0.0
2018-Apr-22 09:59N 46°50' W 071°12'0 0.0
2018-Apr-22 09:26N 46°50' W 071°12'0 0.0
2018-Apr-22 07:47N 46°50' W 071°12'0 0.0
2018-Apr-22 07:29N 46°50' W 071°12'0 0.0
2018-Apr-22 06:02N 46°50' W 071°12'0 0.0
2018-Apr-22 05:35N 46°50' W 071°12'0 0.0
2018-Apr-22 05:05N 46°50' W 071°12'0 0.0
2018-Apr-22 04:38N 46°50' W 071°12'0 0.0
2018-Apr-22 04:23N 46°50' W 071°12'0 0.0
2018-Apr-22 02:56N 46°50' W 071°12'0 0.0
2018-Apr-22 01:20N 46°50' W 071°12'0 0.0
2018-Apr-22 00:59N 46°50' W 071°12'0 0.0
2018-Apr-21 23:20N 46°50' W 071°12'0 0.0
2018-Apr-21 22:50N 46°50' W 071°12'0 0.0
2018-Apr-21 22:23N 46°50' W 071°12'0 0.0
2018-Apr-21 18:11N 46°50' W 071°12'0 0.0
2018-Apr-21 17:54N 46°50' W 071°12'0 1.2
2018-Apr-21 17:31N 46°49' W 071°12'9010.9
2018-Apr-21 09:16N 46°04' W 073°04'312.0
2018-Apr-21 09:00N 46°03' W 073°08'37 1.5
2018-Apr-20 08:25N 45°30' W 073°31'2 5.0
2018-Apr-20 07:59N 45°27' W 073°30'3 6.7
2018-Apr-20 07:31N 45°25' W 073°32'1 2.9
2018-Apr-20 07:00N 45°24' W 073°34'1 2.0
2018-Apr-20 06:30N 45°24' W 073°35'1 2.8
2018-Apr-20 06:01N 45°24' W 073°37'2 3.5
2018-Apr-20 05:30N 45°25' W 073°40'3 5.6
2018-Apr-20 05:00N 45°24' W 073°44'5 9.8
2018-Apr-20 04:30N 45°22' W 073°50'5 9.6
2018-Apr-20 04:00N 45°19' W 073°55'0 0.2
2018-Apr-20 03:30N 45°19' W 073°55'1 1.6
2018-Apr-20 02:59N 45°18' W 073°56'0 0.6
2018-Apr-20 02:30N 45°18' W 073°56'5 9.1
2018-Apr-20 01:59N 45°14' W 073°60'611.1
2018-Apr-20 01:27N 45°14' W 074°08'  

Dump ship's entire track history